Time;durP1;ratioP1;P1;durP2;ratioP2;P2;SDS_P1;SDS_P2;PMS_P1;PMS_P2;Temp;Humidity;BMP_temperature;BMP_pressure;BME280_temperature;BME280_humidity;BME280_pressure;Samples;Min_cycle;Max_cycle;Signal;HPM_P1;HPM_P2
2022/10/20 00:01:03;;;;;;;0.70;0.70;;;;;;;5.22;89.60;98684.78;5091877;28;20048;-83
2022/10/20 00:03:31;;;;;;;0.70;0.70;;;;;;;5.20;89.55;98681.50;5092887;28;20494;-82
2022/10/20 00:06:17;;;;;;;0.60;0.60;;;;;;;5.24;89.53;98683.72;5092964;28;20510;-82
2022/10/20 00:08:45;;;;;;;0.60;0.60;;;;;;;5.22;89.21;98682.09;5092929;28;20047;-83
2022/10/20 00:11:15;;;;;;;0.70;0.70;;;;;;;5.25;89.07;98685.38;5092923;28;20131;-83
2022/10/20 00:13:47;;;;;;;0.65;0.65;;;;;;;5.22;88.38;98690.13;5093128;28;20068;-82
2022/10/20 00:16:14;;;;;;;0.60;0.60;;;;;;;5.22;88.29;98690.13;5092491;28;20052;-83
2022/10/20 00:18:41;;;;;;;0.70;0.70;;;;;;;5.24;88.00;98689.09;5092510;28;20567;-83
2022/10/20 00:21:14;;;;;;;0.70;0.70;;;;;;;5.23;87.43;98693.63;5092737;28;20127;-83
2022/10/20 00:23:41;;;;;;;0.60;0.60;;;;;;;5.24;87.05;98702.47;5092448;28;20052;-82
2022/10/20 00:26:25;;;;;;;0.60;0.60;;;;;;;5.23;87.03;98707.00;5092655;28;20040;-82
2022/10/20 00:28:54;;;;;;;0.70;0.70;;;;;;;5.27;86.46;98710.06;5091492;28;20055;-82
2022/10/20 00:31:22;;;;;;;0.63;0.63;;;;;;;5.26;86.43;98714.59;5091318;28;20464;-81
2022/10/20 00:33:52;;;;;;;0.70;0.70;;;;;;;5.24;86.26;98708.66;5093386;28;20135;-82
2022/10/20 00:36:22;;;;;;;0.73;0.73;;;;;;;5.24;86.31;98707.81;5093450;28;20139;-83
2022/10/20 00:38:56;;;;;;;0.70;0.70;;;;;;;5.23;86.02;98712.34;5093216;28;20048;-83
2022/10/20 00:41:23;;;;;;;0.60;0.60;;;;;;;5.24;85.79;98723.88;5091322;28;20494;-83
2022/10/20 00:44:00;;;;;;;0.70;0.70;;;;;;;5.19;85.46;98725.34;5092668;28;20060;-82
2022/10/20 00:46:38;;;;;;;0.70;0.70;;;;;;;5.21;85.67;98725.13;5092788;28;20052;-82
2022/10/20 00:49:13;;;;;;;0.63;0.63;;;;;;;5.26;85.47;98738.66;5091079;28;20060;-81
2022/10/20 00:51:41;;;;;;;0.70;0.70;;;;;;;5.24;85.67;98734.56;5091232;28;20055;-82
2022/10/20 00:54:12;;;;;;;0.60;0.60;;;;;;;5.24;85.31;98739.91;5058247;28;20506;-80
2022/10/20 00:56:41;;;;;;;0.70;0.70;;;;;;;5.22;85.40;98740.97;5091167;28;20048;-83
2022/10/20 00:59:15;;;;;;;0.60;0.60;;;;;;;5.22;84.84;98743.63;5090943;28;20048;-83
2022/10/20 01:01:43;;;;;;;0.60;0.60;;;;;;;5.24;84.45;98745.25;5090699;28;20051;-82
2022/10/20 01:04:10;;;;;;;0.60;0.60;;;;;;;5.20;84.05;98739.53;5092077;28;20120;-81
2022/10/20 01:06:37;;;;;;;0.70;0.70;;;;;;;5.19;84.13;98749.44;5091709;28;20051;-81
2022/10/20 01:09:04;;;;;;;0.70;0.70;;;;;;;5.21;83.96;98747.34;5092006;28;20534;-82
2022/10/20 01:11:50;;;;;;;0.60;0.60;;;;;;;5.25;83.58;98752.28;5090430;28;20040;-82
2022/10/20 01:14:25;;;;;;;;;;;;;;;5.21;83.31;98755.34;5092789;28;20044;-82
2022/10/20 01:17:07;;;;;;;0.73;0.73;;;;;;;5.18;83.10;98758.47;5091175;28;19928;-83
2022/10/20 01:19:58;;;;;;;0.70;0.70;;;;;;;5.20;82.85;98763.63;5091772;28;20419;-83
2022/10/20 01:22:50;;;;;;;0.70;0.70;;;;;;;5.20;82.83;98764.44;5092062;28;20094;-83
2022/10/20 01:25:59;;;;;;;0.80;0.80;;;;;;;5.22;82.61;98764.22;5090640;28;20154;-82
2022/10/20 01:28:53;;;;;;;0.70;0.70;;;;;;;5.20;82.44;98769.78;5089861;28;20142;-83
2022/10/20 01:31:53;;;;;;;0.70;0.70;;;;;;;5.15;82.33;98772.28;5091689;28;20063;-83
2022/10/20 01:34:30;;;;;;;0.70;0.70;;;;;;;5.15;82.19;98772.28;5035946;28;20052;-83
2022/10/20 01:37:00;;;;;;;0.70;0.70;;;;;;;5.12;81.98;98777.25;5032517;28;20215;-82
2022/10/20 01:39:34;;;;;;;0.70;0.70;;;;;;;5.11;82.02;98783.63;5048853;28;20059;-83
2022/10/20 01:42:13;;;;;;;0.70;0.70;;;;;;;5.11;81.79;98787.13;5048909;28;20048;-82
2022/10/20 01:44:43;;;;;;;0.70;0.70;;;;;;;5.12;81.40;98779.94;5032233;28;20049;-82
2022/10/20 01:47:10;;;;;;;0.70;0.70;;;;;;;5.12;81.55;98786.09;5048913;28;20589;-83
2022/10/20 01:49:41;;;;;;;0.70;0.70;;;;;;;5.14;81.50;98800.09;5031613;28;20064;-83
2022/10/20 01:52:15;;;;;;;0.70;0.70;;;;;;;5.12;81.20;98788.78;5032982;28;20201;-82
2022/10/20 01:54:50;;;;;;;0.60;0.60;;;;;;;5.13;81.43;98798.44;5032140;28;20135;-83
2022/10/20 01:57:36;;;;;;;0.70;0.70;;;;;;;5.12;81.44;98801.34;5048505;28;20053;-83
2022/10/20 02:00:10;;;;;;;0.70;0.70;;;;;;;5.11;81.43;98805.03;5032527;28;20057;-83
2022/10/20 02:03:15;;;;;;;0.70;0.70;;;;;;;5.09;81.36;98812.44;5047985;28;20500;-83
2022/10/20 02:06:13;;;;;;;0.70;0.70;;;;;;;5.04;81.76;98815.78;5048189;28;20566;-82
2022/10/20 02:08:58;;;;;;;0.70;0.70;;;;;;;5.04;82.11;98820.28;5048019;28;20053;-83
2022/10/20 02:11:47;;;;;;;0.70;0.70;;;;;;;5.04;82.34;98826.47;5063926;28;20407;-82
2022/10/20 02:14:17;;;;;;;0.70;0.70;;;;;;;5.01;82.50;98829.56;5090828;28;20139;-82
2022/10/20 02:16:58;;;;;;;0.70;0.70;;;;;;;5.05;82.96;98832.63;5089587;28;20048;-82
2022/10/20 02:19:28;;;;;;;0.60;0.60;;;;;;;5.03;82.93;98835.50;5089760;28;20062;-82
2022/10/20 02:21:56;;;;;;;0.70;0.70;;;;;;;5.02;83.21;98833.88;5089445;28;20058;-82
2022/10/20 02:24:27;;;;;;;0.70;0.70;;;;;;;4.99;83.50;98839.66;5090457;28;20047;-82
2022/10/20 02:26:55;;;;;;;0.60;0.60;;;;;;;4.98;83.60;98840.69;5089346;28;20504;-83
2022/10/20 02:29:27;;;;;;;0.70;0.70;;;;;;;4.99;83.64;98845.03;5089357;28;20499;-83
2022/10/20 02:31:55;;;;;;;0.70;0.70;;;;;;;4.99;84.00;98847.69;5072486;28;20085;-82
2022/10/20 02:34:25;;;;;;;0.70;0.70;;;;;;;4.95;83.86;98849.13;5090425;28;20518;-83
2022/10/20 02:36:56;;;;;;;0.70;0.70;;;;;;;4.93;84.06;98853.88;5090295;28;20090;-83
2022/10/20 02:39:24;;;;;;;0.70;0.70;;;;;;;4.91;84.14;98855.94;5075024;28;20048;-82
2022/10/20 02:41:53;;;;;;;0.70;0.70;;;;;;;4.91;84.16;98864.78;5092878;28;20052;-83
2022/10/20 02:44:21;;;;;;;0.60;0.60;;;;;;;4.90;84.24;98865.00;5094458;28;20059;-83
2022/10/20 02:46:54;;;;;;;0.70;0.70;;;;;;;4.90;84.19;98873.84;5095211;28;20055;-83
2022/10/20 02:49:21;;;;;;;0.80;0.80;;;;;;;4.93;84.29;98869.91;5076492;28;20056;-82
2022/10/20 02:51:51;;;;;;;0.68;0.68;;;;;;;4.91;84.36;98871.97;5092857;28;20411;-83
2022/10/20 02:54:18;;;;;;;0.70;0.70;;;;;;;4.91;84.42;98874.66;5094903;28;20058;-83
2022/10/20 02:56:45;;;;;;;0.70;0.70;;;;;;;4.90;84.47;98876.50;5094338;28;20450;-83
2022/10/20 02:59:16;;;;;;;0.63;0.63;;;;;;;4.94;84.27;98874.25;5094405;28;20506;-83
2022/10/20 03:01:51;;;;;;;0.60;0.60;;;;;;;4.97;84.19;98879.97;5094158;28;20414;-82
2022/10/20 03:04:18;;;;;;;0.70;0.70;;;;;;;4.94;84.28;98887.63;5093356;28;20135;-83
2022/10/20 03:06:45;;;;;;;0.70;0.70;;;;;;;4.89;84.45;98890.09;5093857;28;20076;-82
2022/10/20 03:09:12;;;;;;;0.70;0.70;;;;;;;4.94;84.43;98890.28;5093890;28;20188;-83
2022/10/20 03:11:40;;;;;;;0.60;0.60;;;;;;;4.92;84.43;98892.34;5093955;28;20056;-82
2022/10/20 03:14:06;;;;;;;0.60;0.60;;;;;;;4.88;84.63;98891.94;5094415;28;20477;-83
2022/10/20 03:16:36;;;;;;;0.70;0.70;;;;;;;4.85;84.65;98892.38;5093525;28;20048;-82
2022/10/20 03:19:04;;;;;;;0.70;0.70;;;;;;;4.79;84.81;98887.88;5093859;28;20044;-83
2022/10/20 03:21:35;;;;;;;0.70;0.70;;;;;;;4.76;84.80;98889.09;5093769;28;20052;-83
2022/10/20 03:24:02;;;;;;;0.70;0.70;;;;;;;4.78;85.03;98895.06;5094002;28;20048;-83
2022/10/20 03:26:29;;;;;;;0.60;0.60;;;;;;;4.80;85.02;98894.84;5093607;28;20058;-83
2022/10/20 03:28:56;;;;;;;0.80;0.80;;;;;;;4.82;84.99;98891.97;5092277;28;20417;-82
2022/10/20 03:31:23;;;;;;;0.70;0.70;;;;;;;4.88;85.01;98896.47;5092445;28;20142;-82
2022/10/20 03:33:50;;;;;;;0.70;0.70;;;;;;;4.90;84.98;98910.47;5093715;28;20067;-83
2022/10/20 03:36:17;;;;;;;0.60;0.60;;;;;;;4.89;85.06;98904.28;5093545;28;20079;-83
2022/10/20 03:38:45;;;;;;;0.70;0.70;;;;;;;4.88;85.16;98910.66;5093624;28;20126;-84
2022/10/20 03:41:12;;;;;;;0.70;0.70;;;;;;;4.86;85.11;98912.75;5093589;28;20128;-83
2022/10/20 03:43:39;;;;;;;0.60;0.60;;;;;;;4.87;85.00;98917.03;5093474;28;20087;-82
2022/10/20 03:46:11;;;;;;;0.70;0.70;;;;;;;4.91;84.92;98922.78;5092264;28;20052;-84
2022/10/20 03:48:39;;;;;;;0.70;0.70;;;;;;;4.90;84.68;98924.66;5092952;28;20466;-84
2022/10/20 03:51:10;;;;;;;0.60;0.60;;;;;;;4.94;84.78;98933.91;5092537;28;20529;-83
2022/10/20 03:53:40;;;;;;;0.70;0.70;;;;;;;4.91;84.63;98928.97;5093058;28;20052;-85
2022/10/20 03:56:09;;;;;;;0.70;0.70;;;;;;;4.89;84.45;98927.53;5075858;28;20471;-85
2022/10/20 03:58:36;;;;;;;0.70;0.70;;;;;;;4.92;84.40;98935.16;5091269;28;20048;-84
2022/10/20 04:01:05;;;;;;;0.70;0.70;;;;;;;4.90;84.24;98939.88;5091661;28;20051;-83
2022/10/20 04:03:32;;;;;;;0.70;0.70;;;;;;;4.86;84.07;98935.97;5092391;28;20513;-84
2022/10/20 04:05:59;;;;;;;0.70;0.70;;;;;;;4.84;84.05;98941.53;5092576;28;20502;-82
2022/10/20 04:08:26;;;;;;;0.70;0.70;;;;;;;4.85;83.77;98945.84;5092931;28;20434;-85
2022/10/20 04:10:53;;;;;;;0.80;0.80;;;;;;;4.86;83.80;98952.84;5092298;28;20044;-84
2022/10/20 04:13:20;;;;;;;0.70;0.70;;;;;;;4.87;83.41;98946.47;5090047;28;20489;-84
2022/10/20 04:15:48;;;;;;;0.70;0.70;;;;;;;4.88;83.36;98949.94;5089408;28;20399;-84
2022/10/20 04:18:15;;;;;;;0.75;0.75;;;;;;;4.88;83.11;98950.75;5092298;28;20510;-87
2022/10/20 04:20:42;;;;;;;0.60;0.60;;;;;;;4.91;82.95;98962.91;5088680;28;20505;-88
2022/10/20 04:23:13;;;;;;;0.70;0.70;;;;;;;4.94;82.79;98965.19;5091629;28;20063;-88
2022/10/20 04:25:44;;;;;;;0.70;0.70;;;;;;;4.88;82.78;98964.13;5084736;28;20040;-88
2022/10/20 04:28:12;;;;;;;0.63;0.63;;;;;;;4.88;82.89;98966.00;5092721;28;20048;-88
2022/10/20 04:30:49;;;;;;;0.60;0.60;;;;;;;4.85;82.99;98961.88;5094737;28;20307;-86
2022/10/20 04:33:21;;;;;;;0.70;0.70;;;;;;;4.86;82.94;98976.06;5057870;28;20052;-86
2022/10/20 04:36:01;;;;;;;0.70;0.70;;;;;;;4.72;83.14;98964.59;5072800;28;20041;-86
2022/10/20 04:38:29;;;;;;;0.70;0.70;;;;;;;4.72;83.80;98969.94;5091978;28;20048;-85
2022/10/20 04:41:21;;;;;;;0.80;0.80;;;;;;;4.76;84.03;98981.84;5091111;28;20051;-88
2022/10/20 04:43:56;;;;;;;0.70;0.70;;;;;;;4.67;84.24;98967.88;5091734;28;20468;-86
2022/10/20 04:46:23;;;;;;;0.70;0.70;;;;;;;4.70;84.56;98985.34;5092030;28;20052;-84
2022/10/20 04:48:50;;;;;;;0.80;0.80;;;;;;;4.76;84.59;98990.72;5089251;28;20356;-84
2022/10/20 04:51:17;;;;;;;0.80;0.80;;;;;;;4.79;84.50;98994.81;5084134;28;20048;-85
2022/10/20 04:53:45;;;;;;;0.73;0.73;;;;;;;4.80;84.24;98990.28;5081605;28;20051;-84
2022/10/20 04:56:17;;;;;;;0.73;0.73;;;;;;;4.89;84.29;99003.25;5085951;28;20427;-86
2022/10/20 04:58:53;;;;;;;0.70;0.70;;;;;;;4.91;84.31;99009.22;5067012;28;20153;-82
2022/10/20 05:01:23;;;;;;;0.80;0.80;;;;;;;4.86;84.67;99018.84;5068179;28;20052;-84
2022/10/20 05:03:52;;;;;;;0.70;0.70;;;;;;;4.75;84.86;99017.63;5050113;28;20477;-84
2022/10/20 05:06:26;;;;;;;0.70;0.70;;;;;;;4.69;85.59;99018.47;5068101;28;20097;-85
2022/10/20 05:08:57;;;;;;;0.70;0.70;;;;;;;4.63;86.06;99017.44;5078523;28;20089;-85
2022/10/20 05:11:26;;;;;;;0.70;0.70;;;;;;;4.60;86.75;99020.53;5084999;28;20059;-84
2022/10/20 05:14:03;;;;;;;0.70;0.70;;;;;;;4.55;86.64;99015.78;5086670;28;20056;-83
2022/10/20 05:16:31;;;;;;;0.70;0.70;;;;;;;4.62;86.65;99021.13;5083683;28;20044;-85
2022/10/20 05:18:59;;;;;;;0.70;0.70;;;;;;;4.60;86.30;99023.19;5069529;28;20056;-86
2022/10/20 05:21:28;;;;;;;0.80;0.80;;;;;;;4.66;86.39;99029.56;5081102;28;20044;-84
2022/10/20 05:23:57;;;;;;;0.70;0.70;;;;;;;4.69;86.27;99037.19;5070576;28;20062;-85
2022/10/20 05:26:25;;;;;;;0.80;0.80;;;;;;;4.67;86.47;99037.38;5091848;28;20387;-85
2022/10/20 05:28:52;;;;;;;0.70;0.70;;;;;;;4.73;86.70;99038.41;5089142;28;20054;-85
2022/10/20 05:31:21;;;;;;;0.80;0.80;;;;;;;4.74;86.84;99040.06;5090568;28;20057;-86
2022/10/20 05:33:54;;;;;;;0.80;0.80;;;;;;;4.78;86.97;99044.81;5091252;28;20040;-84
2022/10/20 05:36:25;;;;;;;0.80;0.80;;;;;;;4.81;87.18;99043.56;5091206;28;20514;-84
2022/10/20 05:38:55;;;;;;;0.80;0.80;;;;;;;4.82;87.34;99055.09;5089928;28;20108;-84
2022/10/20 05:41:30;;;;;;;0.70;0.70;;;;;;;4.85;87.66;99060.00;5090012;28;20054;-84
2022/10/20 05:44:03;;;;;;;0.70;0.70;;;;;;;4.85;87.73;99062.69;5091353;28;20320;-85
2022/10/20 05:46:37;;;;;;;0.80;0.80;;;;;;;4.86;87.85;99065.16;5089536;28;20052;-84
2022/10/20 05:49:04;;;;;;;0.70;0.70;;;;;;;4.90;87.95;99069.06;5089631;28;20064;-84
2022/10/20 05:51:34;;;;;;;0.70;0.70;;;;;;;4.88;88.24;99067.63;5089818;28;20400;-84
2022/10/20 05:54:02;;;;;;;0.70;0.70;;;;;;;4.89;88.11;99061.25;5092067;28;20083;-85
2022/10/20 05:56:30;;;;;;;0.70;0.70;;;;;;;4.93;87.94;99070.50;5093196;28;20055;-84
2022/10/20 05:58:57;;;;;;;0.70;0.70;;;;;;;4.96;87.72;99076.28;5091523;28;20134;-84
2022/10/20 06:01:38;;;;;;;0.70;0.70;;;;;;;5.02;87.62;99079.97;5091604;28;20056;-84
2022/10/20 06:04:07;;;;;;;0.70;0.70;;;;;;;5.01;87.18;99078.31;5092508;28;20406;-86
2022/10/20 06:06:35;;;;;;;0.70;0.70;;;;;;;4.96;87.12;99086.97;5090650;28;20463;-84
2022/10/20 06:09:05;;;;;;;0.70;0.70;;;;;;;5.01;87.37;99080.97;5091841;28;20052;-83
2022/10/20 06:11:33;;;;;;;0.63;0.63;;;;;;;5.02;87.23;99089.84;5090092;28;20460;-85
2022/10/20 06:14:06;;;;;;;0.70;0.70;;;;;;;4.98;87.07;99092.91;5090919;28;20132;-85
2022/10/20 06:16:33;;;;;;;0.70;0.70;;;;;;;4.99;86.74;99091.91;5090120;28;20052;-85
2022/10/20 06:19:00;;;;;;;0.70;0.70;;;;;;;5.00;86.85;99092.72;5075238;28;20055;-84
2022/10/20 06:21:35;;;;;;;0.70;0.70;;;;;;;4.96;86.92;99096.81;5089881;28;20469;-85
2022/10/20 06:24:04;;;;;;;0.80;0.80;;;;;;;4.97;86.90;99098.50;5089601;28;20078;-85
2022/10/20 06:26:33;;;;;;;0.70;0.70;;;;;;;4.96;86.99;99102.16;5090816;28;20119;-85
2022/10/20 06:29:00;;;;;;;0.70;0.70;;;;;;;4.90;86.57;99113.69;5090628;28;20094;-85
2022/10/20 06:31:37;;;;;;;0.70;0.70;;;;;;;4.76;86.57;99108.34;5089701;28;20051;-84
2022/10/20 06:34:07;;;;;;;0.73;0.73;;;;;;;4.74;86.28;99110.41;5089286;28;20048;-85
2022/10/20 06:36:38;;;;;;;0.80;0.80;;;;;;;4.71;85.66;99113.50;5089585;28;20044;-84
2022/10/20 06:39:11;;;;;;;0.80;0.80;;;;;;;4.75;85.47;99122.72;5091019;28;20048;-84
2022/10/20 06:41:38;;;;;;;0.70;0.70;;;;;;;4.86;85.10;99109.78;5090650;28;20372;-84
2022/10/20 06:44:09;;;;;;;0.70;0.70;;;;;;;4.97;84.76;99110.00;5089070;28;20048;-85
2022/10/20 06:46:38;;;;;;;0.80;0.80;;;;;;;5.09;84.53;99117.41;5090158;28;20643;-83
2022/10/20 06:49:06;;;;;;;0.80;0.80;;;;;;;5.12;84.27;99117.81;5088881;28;20060;-85
2022/10/20 06:51:35;;;;;;;0.70;0.70;;;;;;;5.13;83.98;99119.47;5089241;28;20197;-84
2022/10/20 06:54:04;;;;;;;0.77;0.77;;;;;;;5.18;84.03;99113.50;5090441;28;20051;-84
2022/10/20 06:56:33;;;;;;;0.80;0.80;;;;;;;5.30;83.38;99111.03;5090203;28;20044;-83
2022/10/20 06:59:05;;;;;;;0.80;0.80;;;;;;;5.40;82.90;99114.91;5090469;28;20066;-84
2022/10/20 07:01:40;;;;;;;0.80;0.80;;;;;;;5.60;82.10;99114.88;5090172;28;20044;-83
2022/10/20 07:04:10;;;;;;;0.80;0.80;;;;;;;5.78;81.16;99114.22;5090613;28;20506;-84
2022/10/20 07:06:42;;;;;;;0.90;0.90;;;;;;;6.02;80.16;99118.06;5089999;28;20138;-82
2022/10/20 07:09:13;;;;;;;0.90;0.90;;;;;;;6.51;78.91;99119.28;5099920;28;20074;-84
2022/10/20 07:11:41;;;;;;;0.90;0.90;;;;;;;6.99;77.45;99117.94;5090294;28;20044;-84
2022/10/20 07:14:11;;;;;;;0.95;0.95;;;;;;;7.38;75.42;99124.81;5090622;28;20524;-85
2022/10/20 07:16:38;;;;;;;0.90;0.90;;;;;;;7.85;72.27;99115.47;5090295;28;20059;-84
2022/10/20 07:19:05;;;;;;;0.90;0.90;;;;;;;8.00;71.23;99118.59;5090486;28;20054;-84
2022/10/20 07:21:32;;;;;;;0.70;0.70;;;;;;;8.08;70.81;99129.06;5090818;28;20118;-84
2022/10/20 07:24:05;;;;;;;0.70;0.70;;;;;;;7.93;69.87;99117.88;5090847;28;20477;-85
2022/10/20 07:26:34;;;;;;;0.70;0.70;;;;;;;7.60;69.72;99122.56;5093395;28;20417;-84
2022/10/20 07:29:02;;;;;;;0.70;0.70;;;;;;;7.32;69.41;99125.72;5094102;28;20135;-85
2022/10/20 07:31:35;;;;;;;0.70;0.70;;;;;;;7.07;68.92;99130.25;5092754;28;20139;-84
2022/10/20 07:34:05;;;;;;;0.80;0.80;;;;;;;6.86;69.27;99134.97;5093961;28;20056;-85
2022/10/20 07:36:46;;;;;;;0.70;0.70;;;;;;;6.69;68.65;99133.84;5093602;28;20052;-85
2022/10/20 07:39:14;;;;;;;0.80;0.80;;;;;;;6.65;68.22;99137.97;5093834;28;20066;-83
2022/10/20 07:41:44;;;;;;;0.70;0.70;;;;;;;6.67;68.21;99146.63;5093211;28;20059;-84
2022/10/20 07:44:11;;;;;;;0.80;0.80;;;;;;;6.73;67.12;99145.75;5092434;28;20159;-85
2022/10/20 07:46:38;;;;;;;0.70;0.70;;;;;;;6.82;65.83;99140.97;5093688;28;20048;-84
2022/10/20 07:49:05;;;;;;;0.77;0.77;;;;;;;7.00;65.64;99135.66;5092130;28;20052;-86
2022/10/20 07:51:55;;;;;;;0.77;0.77;;;;;;;7.14;64.02;99147.13;5093454;28;20115;-85
2022/10/20 07:54:22;;;;;;;0.77;0.77;;;;;;;7.09;64.42;99152.31;5092031;28;20047;-84
2022/10/20 07:56:52;;;;;;;0.80;0.80;;;;;;;7.12;64.02;99146.53;5086978;28;20083;-83
2022/10/20 07:59:20;;;;;;;0.80;0.80;;;;;;;7.18;64.03;99158.25;5090779;28;20052;-82
2022/10/20 08:01:51;;;;;;;0.90;0.90;;;;;;;8.10;61.90;99153.84;5078728;28;20078;-85
2022/10/20 08:04:30;;;;;;;0.90;0.90;;;;;;;8.41;60.92;99149.38;5083252;28;20136;-90
2022/10/20 08:06:58;;;;;;;0.90;0.90;;;;;;;8.90;58.79;99152.81;5081664;28;20056;-87
2022/10/20 08:09:28;;;;;;;0.82;0.82;;;;;;;8.94;58.38;99154.00;5073113;28;20086;-85
2022/10/20 08:11:55;;;;;;;0.90;0.90;;;;;;;9.28;57.42;99160.50;5087903;28;20048;-85
2022/10/20 08:14:35;;;;;;;0.80;0.80;;;;;;;9.59;55.28;99152.31;5063680;28;10000849;-83
2022/10/20 08:17:03;;;;;;;0.90;0.90;;;;;;;9.68;54.93;99159.00;5067905;28;20257;-85
2022/10/20 08:19:32;;;;;;;0.90;0.90;;;;;;;9.86;54.46;99158.88;5070196;28;20423;-84
2022/10/20 08:22:14;;;;;;;0.90;0.90;;;;;;;10.39;52.66;99147.06;5080153;28;20135;-85
2022/10/20 08:24:43;;;;;;;0.90;0.90;;;;;;;11.01;51.86;99149.03;5073349;28;20056;-87
2022/10/20 08:27:13;;;;;;;0.90;0.90;;;;;;;11.02;51.64;99150.66;5090228;28;20056;-86
2022/10/20 08:29:41;;;;;;;0.90;0.90;;;;;;;11.62;49.09;99148.34;5091403;28;20068;-87
2022/10/20 08:32:25;;;;;;;1.00;1.00;;;;;;;12.23;47.80;99137.56;5090850;28;20151;-85
2022/10/20 08:34:57;;;;;;;0.90;0.90;;;;;;;12.23;47.67;99160.06;5093416;28;20056;-88
2022/10/20 08:37:25;;;;;;;0.60;0.60;;;;;;;10.93;50.10;99152.09;5072017;28;20055;-90
2022/10/20 08:39:52;;;;;;;0.60;0.60;;;;;;;9.59;51.61;99157.72;5089993;28;20109;-88
2022/10/20 08:42:22;;;;;;;0.70;0.70;;;;;;;8.55;53.12;99158.06;5089462;28;20052;-87
2022/10/20 08:44:50;;;;;;;0.70;0.70;;;;;;;8.12;54.95;99165.19;5086364;28;20064;-88
2022/10/20 08:47:29;;;;;;;0.60;0.60;;;;;;;7.73;52.68;99167.25;5088896;28;20048;-88
2022/10/20 08:50:04;;;;;;;0.70;0.70;;;;;;;7.53;55.42;99164.75;5071076;28;20137;-88
2022/10/20 08:52:33;;;;;;;0.60;0.60;;;;;;;7.59;55.33;99171.09;5089354;28;20498;-89
2022/10/20 08:55:03;;;;;;;0.60;0.60;;;;;;;7.57;55.31;99167.81;5090504;28;20188;-88
2022/10/20 08:57:34;;;;;;;0.70;0.70;;;;;;;7.51;55.09;99169.53;5090738;28;20052;-87
2022/10/20 09:00:20;;;;;;;0.70;0.70;;;;;;;7.42;55.51;99176.22;5102587;28;20262;-88
2022/10/20 09:02:48;;;;;;;;;;;;;;;7.21;56.10;99185.47;5089570;28;20047;-86
2022/10/20 09:05:25;;;;;;;0.60;0.60;;;;;;;6.95;57.53;99181.13;5088447;28;19923;-90
2022/10/20 09:07:53;;;;;;;0.70;0.70;;;;;;;6.74;57.87;99184.97;5074070;28;20048;-89
2022/10/20 09:10:26;;;;;;;0.60;0.60;;;;;;;6.61;58.65;99193.91;5088693;28;20047;-89
2022/10/20 09:12:56;;;;;;;0.60;0.60;;;;;;;6.46;59.18;99194.19;5088758;28;20058;-89
2022/10/20 09:15:25;;;;;;;0.70;0.70;;;;;;;6.29;59.39;99195.69;5065253;28;20183;-87
2022/10/20 09:17:59;;;;;;;0.77;0.77;;;;;;;6.27;59.94;99197.75;5076274;28;20048;-89
2022/10/20 09:20:31;;;;;;;0.70;0.70;;;;;;;6.19;60.07;99201.50;5077350;28;20156;-87
2022/10/20 09:22:59;;;;;;;0.70;0.70;;;;;;;6.20;60.48;99205.00;5088232;28;20067;-85
2022/10/20 09:25:35;;;;;;;0.70;0.70;;;;;;;6.24;60.73;99198.19;5085576;28;20052;-88
2022/10/20 09:28:02;;;;;;;0.70;0.70;;;;;;;6.44;60.54;99206.97;5090060;28;20060;-87
2022/10/20 09:30:29;;;;;;;0.70;0.70;;;;;;;6.55;59.58;99204.66;5078775;28;20090;-86
2022/10/20 09:32:57;;;;;;;0.70;0.70;;;;;;;6.65;58.85;99208.53;5083666;28;20040;-87
2022/10/20 09:35:28;;;;;;;0.70;0.70;;;;;;;6.67;58.90;99211.81;5085588;28;20139;-87
2022/10/20 09:38:10;;;;;;;0.70;0.70;;;;;;;6.65;58.66;99213.88;5081769;28;20036;-85
2022/10/20 09:41:09;;;;;;;0.80;0.80;;;;;;;6.60;58.48;99212.88;5087775;28;20105;-86
2022/10/20 09:43:38;;;;;;;0.70;0.70;;;;;;;6.50;58.30;99210.66;5067019;28;20059;-87
2022/10/20 09:46:09;;;;;;;0.70;0.70;;;;;;;6.30;57.06;99208.03;5088206;28;20158;-85
2022/10/20 09:48:39;;;;;;;0.70;0.70;;;;;;;6.25;58.42;99211.38;5083103;28;20059;-86
2022/10/20 09:51:16;;;;;;;0.70;0.70;;;;;;;6.31;58.38;99214.25;5085519;28;20055;-85
2022/10/20 09:54:00;;;;;;;0.70;0.70;;;;;;;6.39;58.51;99214.81;5084997;28;20603;-88
2022/10/20 09:56:39;;;;;;;0.70;0.70;;;;;;;6.34;58.48;99211.16;5087313;28;20052;-88
2022/10/20 09:59:33;;;;;;;0.70;0.70;;;;;;;6.34;58.20;99214.63;5085202;28;20052;-88
2022/10/20 10:02:03;;;;;;;0.70;0.70;;;;;;;6.29;58.46;99219.81;5078176;28;20056;-89
2022/10/20 10:04:37;;;;;;;0.70;0.70;;;;;;;6.25;59.00;99210.53;5084469;28;20106;-91
2022/10/20 10:07:25;;;;;;;;;;;;;;;6.13;59.20;99226.47;5061779;28;20047;-88
2022/10/20 10:09:58;;;;;;;0.70;0.70;;;;;;;6.15;59.01;99227.06;5059103;28;19928;-90
2022/10/20 10:12:34;;;;;;;0.70;0.70;;;;;;;6.27;58.71;99217.34;5095892;28;20080;-89
2022/10/20 10:15:10;;;;;;;0.70;0.70;;;;;;;6.37;59.30;99216.88;5093026;28;20051;-88
2022/10/20 10:17:39;;;;;;;0.70;0.70;;;;;;;6.34;58.37;99211.97;5096482;28;20085;-88
2022/10/20 10:20:38;;;;;;;0.70;0.70;;;;;;;6.33;57.70;99220.19;5092501;28;20414;-88
2022/10/20 10:23:26;;;;;;;0.70;0.70;;;;;;;6.33;58.27;99221.06;5069917;28;20036;-89
2022/10/20 10:25:56;;;;;;;0.65;0.65;;;;;;;6.14;58.14;99219.25;5080369;28;20052;-89
2022/10/20 10:28:32;;;;;;;0.70;0.70;;;;;;;6.05;57.97;99218.63;5085564;28;20040;-88
2022/10/20 10:31:19;;;;;;;0.70;0.70;;;;;;;6.06;58.03;99221.13;5067279;28;20526;-87
2022/10/20 10:33:48;;;;;;;0.80;0.80;;;;;;;6.09;58.49;99222.53;5074653;28;20126;-87
2022/10/20 10:36:32;;;;;;;0.63;0.63;;;;;;;6.16;58.85;99222.53;5084160;28;20318;-89
2022/10/20 10:39:02;;;;;;;0.70;0.70;;;;;;;6.28;58.66;99223.53;5089265;28;20051;-88
2022/10/20 10:41:49;;;;;;;0.70;0.70;;;;;;;6.31;58.50;99217.75;5091800;28;20048;-87
2022/10/20 10:44:26;;;;;;;0.70;0.70;;;;;;;6.25;58.71;99216.75;5032797;28;20454;-87
2022/10/20 10:46:52;;;;;;;0.60;0.60;;;;;;;6.22;58.52;99213.66;5030839;28;20148;-89
2022/10/20 10:49:49;;;;;;;0.70;0.70;;;;;;;6.15;58.94;99224.38;5047463;28;20057;-87
2022/10/20 10:52:16;;;;;;;0.70;0.70;;;;;;;6.15;58.56;99212.84;4946982;29;20133;-87
2022/10/20 10:55:01;;;;;;;0.70;0.70;;;;;;;6.15;58.83;99226.25;4945457;29;20111;-84
2022/10/20 10:57:45;;;;;;;0.60;0.60;;;;;;;6.15;58.02;99212.84;4949474;29;20055;-87
2022/10/20 11:00:37;;;;;;;0.70;0.70;;;;;;;6.07;58.49;99222.75;4947516;28;20126;-87
2022/10/20 11:03:19;;;;;;;0.70;0.70;;;;;;;6.05;57.84;99215.94;4947642;29;20097;-86
2022/10/20 11:06:11;;;;;;;0.70;0.70;;;;;;;5.94;58.37;99220.09;4952772;29;20466;-87
2022/10/20 11:08:58;;;;;;;0.70;0.70;;;;;;;5.96;58.78;99223.41;4937470;29;20114;-86
2022/10/20 11:11:33;;;;;;;0.70;0.70;;;;;;;6.00;59.09;99221.97;4935227;29;20056;-86
2022/10/20 11:14:30;;;;;;;0.60;0.60;;;;;;;5.88;58.36;99228.97;4948028;29;20544;-86
2022/10/20 11:17:32;;;;;;;0.70;0.70;;;;;;;5.76;59.30;99219.91;4953881;29;20063;-86
2022/10/20 11:20:11;;;;;;;0.70;0.70;;;;;;;5.75;59.66;99231.66;4953619;29;20129;-86
2022/10/20 11:23:29;;;;;;;0.65;0.65;;;;;;;5.76;60.07;99230.63;5011730;28;20050;-86
2022/10/20 11:26:05;;;;;;;0.68;0.68;;;;;;;5.79;60.26;99233.69;4981178;28;20050;-86
2022/10/20 11:28:44;;;;;;;0.70;0.70;;;;;;;5.67;60.29;99235.34;5047149;28;20395;-85
2022/10/20 11:31:50;;;;;;;0.60;0.60;;;;;;;5.64;60.23;99236.59;5093686;28;20097;-86
2022/10/20 11:34:38;;;;;;;0.80;0.80;;;;;;;5.58;60.56;99255.34;5019031;28;20516;-86
2022/10/20 11:37:22;;;;;;;0.80;0.80;;;;;;;5.59;60.26;99241.72;4999072;28;20050;-87
2022/10/20 11:40:20;;;;;;;0.70;0.70;;;;;;;5.72;59.97;99234.72;5001236;28;20053;-82
2022/10/20 11:43:04;;;;;;;0.70;0.70;;;;;;;5.82;58.91;99248.53;5007235;28;20088;-85
2022/10/20 11:45:59;;;;;;;0.70;0.70;;;;;;;5.81;58.05;99246.88;5031864;28;20092;-84
2022/10/20 11:48:39;;;;;;;0.70;0.70;;;;;;;5.88;58.89;99239.66;5017571;28;20049;-84
2022/10/20 11:51:30;;;;;;;0.70;0.70;;;;;;;5.95;58.17;99237.84;5033521;28;20045;-88
2022/10/20 11:54:16;;;;;;;0.70;0.70;;;;;;;5.88;57.98;99241.53;5016452;28;20053;-86
2022/10/20 11:57:01;;;;;;;0.70;0.70;;;;;;;5.81;58.34;99244.22;4677296;28;10000103;-84
2022/10/20 11:59:53;;;;;;;0.70;0.70;;;;;;;5.86;58.64;99241.72;4993650;28;20072;-83
2022/10/20 12:02:48;;;;;;;0.80;0.80;;;;;;;5.84;58.05;99243.78;5024241;28;20049;-85
2022/10/20 12:05:52;;;;;;;0.60;0.60;;;;;;;5.73;57.94;99252.47;5028293;28;20049;-86
2022/10/20 12:08:44;;;;;;;0.70;0.70;;;;;;;5.67;58.19;99255.94;5055780;28;20480;-85
2022/10/20 12:11:58;;;;;;;0.70;0.70;;;;;;;5.68;57.71;99254.94;5071782;28;20576;-84
2022/10/20 12:14:37;;;;;;;0.70;0.70;;;;;;;5.62;57.82;99262.75;5026248;28;20127;-86